createdAt,value
2023-01-10T00:02:45.943Z,65.25
2023-01-10T00:05:55.109Z,64.63
2023-01-10T00:09:00.628Z,64.96
2023-01-10T00:12:22.712Z,65.44
2023-01-10T00:15:28.192Z,65.37
2023-01-10T00:18:34.507Z,65.72
2023-01-10T00:21:42.684Z,65.43
2023-01-10T00:24:49.409Z,66.20
2023-01-10T00:28:03.009Z,66.28
2023-01-10T00:31:12.138Z,65.78
2023-01-10T00:34:18.241Z,66.41
2023-01-10T00:37:27.340Z,65.81
2023-01-10T00:40:32.713Z,66.00
2023-01-10T00:43:54.590Z,66.40
2023-01-10T00:47:00.397Z,66.29
2023-01-10T00:50:08.715Z,66.11
2023-01-10T00:53:16.848Z,65.65
2023-01-10T00:56:23.051Z,66.89
2023-01-10T00:59:29.612Z,66.85
2023-01-10T01:02:35.899Z,66.63
2023-01-10T01:05:44.828Z,67.34
2023-01-10T01:08:53.896Z,67.10
2023-01-10T01:11:59.704Z,67.75
2023-01-10T01:15:05.935Z,67.51
2023-01-10T01:18:13.295Z,67.29
2023-01-10T01:21:21.477Z,67.39
2023-01-10T01:24:29.599Z,67.81
2023-01-10T01:27:35.924Z,68.14
2023-01-10T01:30:41.792Z,68.48
2023-01-10T01:33:48.467Z,68.40
2023-01-10T01:36:53.797Z,68.62
2023-01-10T01:40:02.945Z,68.40
2023-01-10T01:43:08.448Z,69.61
2023-01-10T01:46:14.785Z,69.80
2023-01-10T01:49:26.331Z,69.41
2023-01-10T01:52:38.182Z,70.09
2023-01-10T01:55:50.304Z,70.60
2023-01-10T01:59:02.907Z,69.93
2023-01-10T02:02:20.158Z,71.50
2023-01-10T02:05:29.682Z,71.04
2023-01-10T02:08:35.418Z,71.92
2023-01-10T02:11:44.401Z,71.40
2023-01-10T02:14:55.191Z,70.61
2023-01-10T02:18:06.660Z,71.61
2023-01-10T02:21:40.309Z,71.29
2023-01-10T02:25:37.107Z,71.43
2023-01-10T02:29:30.795Z,71.22
2023-01-10T02:33:05.195Z,71.78
2023-01-10T02:36:39.459Z,71.48
2023-01-10T02:40:01.744Z,72.47
2023-01-10T02:43:18.617Z,71.53
2023-01-10T02:46:32.179Z,72.20
2023-01-10T02:49:50.871Z,71.14
2023-01-10T02:52:56.952Z,71.30
2023-01-10T02:56:43.170Z,71.14
2023-01-10T03:00:12.788Z,71.77
2023-01-10T03:03:39.119Z,71.16
2023-01-10T03:06:59.463Z,71.12
2023-01-10T03:10:13.900Z,71.76
2023-01-10T03:13:29.687Z,70.80
2023-01-10T03:16:44.008Z,70.00
2023-01-10T03:19:56.670Z,70.77
2023-01-10T03:23:09.843Z,70.08
2023-01-10T03:26:18.914Z,70.02
2023-01-10T03:29:34.606Z,69.46
2023-01-10T03:32:40.558Z,69.56
2023-01-10T03:36:16.859Z,69.89
2023-01-10T03:39:38.728Z,70.13
2023-01-10T03:43:15.541Z,70.35
2023-01-10T03:46:34.044Z,70.41
2023-01-10T03:49:48.245Z,70.71
2023-01-10T03:52:53.727Z,71.19
2023-01-10T03:56:04.072Z,71.22
2023-01-10T03:59:09.460Z,71.27
2023-01-10T04:02:16.827Z,70.90
2023-01-10T04:05:22.747Z,70.19
2023-01-10T04:08:29.211Z,69.85
2023-01-10T04:11:37.536Z,69.61
2023-01-10T04:14:45.666Z,69.76
2023-01-10T04:17:52.133Z,69.74
2023-01-10T04:20:58.353Z,69.85
2023-01-10T04:24:03.755Z,70.24
2023-01-10T04:27:14.147Z,70.15
2023-01-10T04:30:20.917Z,70.31
2023-01-10T04:33:28.640Z,70.35
2023-01-10T04:36:34.045Z,70.86
2023-01-10T04:39:40.591Z,69.99
2023-01-10T04:42:48.879Z,70.52
2023-01-10T04:45:55.365Z,71.14
2023-01-10T04:49:01.369Z,70.53
2023-01-10T04:52:07.644Z,71.22
2023-01-10T04:55:14.122Z,71.31
2023-01-10T04:58:23.358Z,70.87
2023-01-10T05:01:29.656Z,70.84
2023-01-10T05:04:36.304Z,71.17
2023-01-10T05:07:43.220Z,71.45
2023-01-10T05:10:49.452Z,71.74
2023-01-10T05:13:58.156Z,71.05
2023-01-10T05:17:04.407Z,72.39
2023-01-10T05:20:10.923Z,71.41
2023-01-10T05:23:17.274Z,71.69
2023-01-10T05:26:25.980Z,72.22
2023-01-10T05:29:36.322Z,72.07
2023-01-10T05:32:42.135Z,72.84
2023-01-10T05:35:48.324Z,72.69
2023-01-10T05:38:55.495Z,72.47
2023-01-10T05:42:01.751Z,72.48
2023-01-10T05:45:11.486Z,72.55
2023-01-10T05:48:17.788Z,73.50
2023-01-10T05:51:23.191Z,72.35
2023-01-10T05:54:29.853Z,73.16
2023-01-10T05:57:35.272Z,72.88
2023-01-10T06:00:44.190Z,73.85
2023-01-10T06:03:50.041Z,74.08
2023-01-10T06:06:56.623Z,73.51
2023-01-10T06:10:02.161Z,73.74
2023-01-10T06:13:09.972Z,72.50
2023-01-10T06:16:18.277Z,71.48
2023-01-10T06:19:24.560Z,71.28
2023-01-10T06:22:30.961Z,72.39
2023-01-10T06:25:40.934Z,72.53
2023-01-10T06:28:46.355Z,72.46
2023-01-10T06:31:55.495Z,73.28
2023-01-10T06:35:00.893Z,72.50
2023-01-10T06:38:07.520Z,72.03
2023-01-10T06:41:15.915Z,73.12
2023-01-10T06:44:22.410Z,72.38
2023-01-10T06:47:31.118Z,71.77
2023-01-10T06:50:37.415Z,72.48
2023-01-10T06:53:42.842Z,71.61
2023-01-10T06:56:51.078Z,71.49
2023-01-10T06:59:57.033Z,72.29
2023-01-10T07:03:06.119Z,71.48
2023-01-10T07:06:13.063Z,71.49
2023-01-10T07:09:19.575Z,72.19
2023-01-10T07:12:25.124Z,71.65
2023-01-10T07:15:31.780Z,72.58
2023-01-10T07:18:42.633Z,71.71
2023-01-10T07:21:49.271Z,72.36
2023-01-10T07:24:55.161Z,71.84
2023-01-10T07:28:01.461Z,72.16
2023-01-10T07:31:09.027Z,72.33
2023-01-10T07:34:18.051Z,73.05
2023-01-10T07:37:23.417Z,71.77
2023-01-10T07:40:30.116Z,72.85
2023-01-10T07:43:36.840Z,72.80
2023-01-10T07:46:43.286Z,71.82
2023-01-10T07:49:51.403Z,71.88
2023-01-10T07:52:57.873Z,71.55
2023-01-10T07:56:05.608Z,72.67
2023-01-10T07:59:12.145Z,73.00
2023-01-10T08:02:17.637Z,71.62
2023-01-10T08:05:27.226Z,72.37
2023-01-10T08:08:33.331Z,72.66
2023-01-10T08:11:41.509Z,71.57
2023-01-10T08:14:47.057Z,71.75
2023-01-10T08:17:53.340Z,71.22
2023-01-10T08:21:01.498Z,72.41
2023-01-10T08:24:08.953Z,72.58
2023-01-10T08:27:14.508Z,71.75
2023-01-10T08:30:21.518Z,71.14
2023-01-10T08:33:28.170Z,70.95
2023-01-10T08:36:37.486Z,72.46
2023-01-10T08:39:43.324Z,72.24
2023-01-10T08:42:49.571Z,71.41
2023-01-10T08:45:55.124Z,71.79
2023-01-10T08:49:01.494Z,72.44
2023-01-10T08:52:09.996Z,71.29
2023-01-10T08:55:16.296Z,72.19
2023-01-10T08:58:21.667Z,73.10
2023-01-10T09:01:28.007Z,71.99
2023-01-10T09:04:34.513Z,71.76
2023-01-10T09:07:43.916Z,72.36
2023-01-10T09:10:49.314Z,72.34
2023-01-10T09:13:55.553Z,71.58
2023-01-10T09:17:00.930Z,72.37
2023-01-10T09:20:10.329Z,72.40
2023-01-10T09:23:22.203Z,71.24
2023-01-10T09:26:28.484Z,71.38
2023-01-10T09:29:34.142Z,71.62
2023-01-10T09:32:40.749Z,71.04
2023-01-10T09:35:47.185Z,71.50
2023-01-10T09:38:56.252Z,71.41
2023-01-10T09:42:28.594Z,71.54
2023-01-10T09:45:52.148Z,71.65
2023-01-10T09:49:16.103Z,71.97
2023-01-10T09:52:31.004Z,72.25
2023-01-10T09:55:42.303Z,72.84
2023-01-10T09:58:50.998Z,72.17
2023-01-10T10:02:07.715Z,72.47
2023-01-10T10:05:23.351Z,72.99
2023-01-10T10:08:28.876Z,72.46
2023-01-10T10:11:57.836Z,71.78
2023-01-10T10:15:24.118Z,72.62
2023-01-10T10:18:52.348Z,71.84
2023-01-10T10:22:13.926Z,73.32
2023-01-10T10:25:48.126Z,72.68
2023-01-10T10:29:37.573Z,72.89
2023-01-10T10:33:22.257Z,72.83
2023-01-10T10:36:42.601Z,73.28
2023-01-10T10:39:57.162Z,72.91
2023-01-10T10:43:21.980Z,72.49
2023-01-10T10:46:31.270Z,73.31
2023-01-10T10:49:46.603Z,73.11
2023-01-10T10:52:53.010Z,71.51
2023-01-10T10:56:00.838Z,72.84
2023-01-10T10:59:09.315Z,73.29
2023-01-10T11:02:29.586Z,71.86
2023-01-10T11:05:43.005Z,71.89
2023-01-10T11:08:53.567Z,73.46
2023-01-10T11:12:00.833Z,72.35
2023-01-10T11:15:06.708Z,71.29
2023-01-10T11:18:21.463Z,72.36
2023-01-10T11:21:27.080Z,72.21
2023-01-10T11:24:38.896Z,72.06
2023-01-10T11:27:54.361Z,72.76
2023-01-10T11:31:03.159Z,72.46
2023-01-10T11:34:27.687Z,74.17
2023-01-10T11:37:36.553Z,73.46
2023-01-10T11:40:42.126Z,72.55
2023-01-10T11:43:48.637Z,71.96
2023-01-10T11:47:00.326Z,73.14
2023-01-10T11:51:23.283Z,72.41
2023-01-10T11:54:36.401Z,73.25
2023-01-10T11:57:42.799Z,74.11
2023-01-10T12:00:52.623Z,74.26
2023-01-10T12:04:00.230Z,73.65
2023-01-10T12:07:13.381Z,73.88
2023-01-10T12:10:27.800Z,73.49
2023-01-10T12:13:47.747Z,74.04
2023-01-10T12:17:03.655Z,74.29
2023-01-10T12:20:18.230Z,73.83
2023-01-10T12:23:29.940Z,75.00
2023-01-10T12:26:39.101Z,73.43
2023-01-10T12:29:54.928Z,74.41
2023-01-10T12:33:06.732Z,73.65
2023-01-10T12:36:34.163Z,74.06
2023-01-10T12:39:49.221Z,75.07
2023-01-10T12:43:25.987Z,73.54
2023-01-10T12:47:09.173Z,74.18
2023-01-10T12:50:25.804Z,74.78
2023-01-10T12:53:39.197Z,74.12
2023-01-10T12:56:48.107Z,74.67
2023-01-10T13:00:03.124Z,73.79
2023-01-10T13:03:18.507Z,74.26
2023-01-10T13:06:34.785Z,73.81
2023-01-10T13:09:45.517Z,72.55
2023-01-10T13:13:02.294Z,73.74
2023-01-10T13:16:34.293Z,73.52
2023-01-10T13:19:39.702Z,72.82
2023-01-10T13:22:51.463Z,74.27
2023-01-10T13:26:05.580Z,73.01
2023-01-10T13:29:21.510Z,74.12
2023-01-10T13:32:36.560Z,74.66
2023-01-10T13:35:49.142Z,74.34
2023-01-10T13:39:01.057Z,73.82
2023-01-10T13:42:49.791Z,74.10
2023-01-10T13:46:41.307Z,74.15
2023-01-10T13:49:50.755Z,74.08
2023-01-10T13:52:59.245Z,74.98
2023-01-10T13:56:05.470Z,74.20
2023-01-10T13:59:52.781Z,74.32
2023-01-10T14:02:59.051Z,74.77
2023-01-10T14:06:18.009Z,74.79
2023-01-10T14:09:44.850Z,74.16
2023-01-10T14:13:00.155Z,73.96
2023-01-10T14:16:09.041Z,74.06
2023-01-10T14:19:32.896Z,74.57
2023-01-10T14:22:59.700Z,74.21
2023-01-10T14:26:07.807Z,73.35
2023-01-10T14:29:20.984Z,73.91
2023-01-10T14:32:38.704Z,73.47
2023-01-10T14:35:52.540Z,74.41
2023-01-10T14:39:08.907Z,74.29
2023-01-10T14:42:20.867Z,73.24
2023-01-10T14:45:39.649Z,73.00
2023-01-10T14:48:52.446Z,73.10
2023-01-10T14:52:13.972Z,72.74
2023-01-10T14:55:24.421Z,74.11
2023-01-10T14:58:29.866Z,72.99
2023-01-10T15:01:37.275Z,72.15
2023-01-10T15:04:59.229Z,73.36
2023-01-10T15:08:26.763Z,73.11
2023-01-10T15:11:36.403Z,73.50
2023-01-10T15:14:44.445Z,72.56
2023-01-10T15:17:52.342Z,73.53
2023-01-10T15:21:00.987Z,72.62
2023-01-10T15:24:28.571Z,73.66
2023-01-10T15:27:47.957Z,73.36
2023-01-10T15:30:55.286Z,73.03
2023-01-10T15:34:02.209Z,72.80
2023-01-10T15:37:10.137Z,73.56
2023-01-10T15:40:27.404Z,73.23
2023-01-10T15:43:37.328Z,73.23
2023-01-10T15:46:58.886Z,73.51
2023-01-10T15:50:04.415Z,72.69
2023-01-10T15:53:14.658Z,73.15
2023-01-10T15:56:27.229Z,72.61
2023-01-10T15:59:44.909Z,73.52
2023-01-10T16:02:51.673Z,72.99
2023-01-10T16:06:02.397Z,72.17
2023-01-10T16:09:20.764Z,72.52
2023-01-10T16:12:46.631Z,72.06
2023-01-10T16:15:54.842Z,72.33
2023-01-10T16:19:02.808Z,72.63
2023-01-10T16:22:08.829Z,72.30
2023-01-10T16:25:22.496Z,71.56
2023-01-10T16:28:31.078Z,71.82
2023-01-10T16:31:40.210Z,73.29
2023-01-10T16:34:45.599Z,72.03
2023-01-10T16:37:52.683Z,72.17
2023-01-10T16:41:22.639Z,73.34
2023-01-10T16:44:26.099Z,72.69
2023-01-10T16:47:34.407Z,72.52
2023-01-10T16:50:40.875Z,71.62
2023-01-10T16:53:46.335Z,71.82
2023-01-10T16:56:53.178Z,72.35
2023-01-10T16:59:58.611Z,72.10
2023-01-10T17:03:14.655Z,72.35
2023-01-10T17:06:20.785Z,71.94
2023-01-10T17:09:32.474Z,71.62
2023-01-10T17:12:42.448Z,72.78
2023-01-10T17:15:49.044Z,71.32
2023-01-10T17:19:07.102Z,72.29
2023-01-10T17:22:13.378Z,72.00
2023-01-10T17:25:20.972Z,72.65
2023-01-10T17:28:27.857Z,70.66
2023-01-10T17:31:33.610Z,71.36
2023-01-10T17:34:42.905Z,71.74
2023-01-10T17:37:52.299Z,71.23
2023-01-10T17:41:02.247Z,71.55
2023-01-10T17:44:07.978Z,71.31
2023-01-10T17:47:14.196Z,71.72
2023-01-10T17:50:22.524Z,71.33
2023-01-10T17:53:29.998Z,70.53
2023-01-10T17:56:35.511Z,70.89
2023-01-10T17:59:41.831Z,70.49
2023-01-10T18:02:47.997Z,71.20
2023-01-10T18:06:01.625Z,70.50
2023-01-10T18:09:07.851Z,71.98
2023-01-10T18:12:14.142Z,70.53
2023-01-10T18:15:19.626Z,71.54
2023-01-10T18:18:27.861Z,71.51
2023-01-10T18:21:36.103Z,70.81
2023-01-10T18:24:42.792Z,71.17
2023-01-10T18:27:50.664Z,70.70
2023-01-10T18:30:56.982Z,71.69
2023-01-10T18:34:02.398Z,70.76
2023-01-10T18:37:11.585Z,70.63
2023-01-10T18:40:17.292Z,71.33
2023-01-10T18:43:24.532Z,71.82
2023-01-10T18:46:44.824Z,71.28
2023-01-10T18:50:05.388Z,70.14
2023-01-10T18:53:29.009Z,70.76
2023-01-10T18:56:49.292Z,70.30
2023-01-10T19:00:11.726Z,70.53
2023-01-10T19:03:32.095Z,71.00
2023-01-10T19:06:52.547Z,71.03
2023-01-10T19:10:16.794Z,71.08
2023-01-10T19:13:38.434Z,70.30
2023-01-10T19:16:58.827Z,70.26
2023-01-10T19:20:20.111Z,70.48
2023-01-10T19:23:40.475Z,71.19
2023-01-10T19:27:03.634Z,71.03
2023-01-10T19:30:24.213Z,71.02
2023-01-10T19:33:44.684Z,70.67
2023-01-10T19:37:05.115Z,71.24
2023-01-10T19:40:25.494Z,70.04
2023-01-10T19:43:48.638Z,70.48
2023-01-10T19:47:09.093Z,70.99
2023-01-10T19:50:29.998Z,70.45
2023-01-10T19:53:56.710Z,71.05
2023-01-10T19:57:17.193Z,70.05
2023-01-10T20:00:40.370Z,70.93
2023-01-10T20:04:04.224Z,71.43
2023-01-10T20:07:24.867Z,70.75
2023-01-10T20:10:48.556Z,71.51
2023-01-10T20:14:10.848Z,70.99
2023-01-10T20:17:34.564Z,71.57
2023-01-10T20:20:58.260Z,70.60
2023-01-10T20:24:22.707Z,71.42
2023-01-10T20:27:43.114Z,70.78
2023-01-10T20:31:04.738Z,70.51
2023-01-10T20:34:27.879Z,71.70
2023-01-10T20:37:48.304Z,71.42
2023-01-10T20:41:11.772Z,70.83
2023-01-10T20:44:32.269Z,70.81
2023-01-10T20:47:54.402Z,71.06
2023-01-10T20:51:22.564Z,70.26
2023-01-10T20:54:43.153Z,70.42
2023-01-10T20:58:03.710Z,71.00
2023-01-10T21:01:34.277Z,70.41
2023-01-10T21:04:58.063Z,70.75
2023-01-10T21:08:21.798Z,70.96
2023-01-10T21:11:57.929Z,69.99
2023-01-10T21:15:22.244Z,70.04
2023-01-10T21:18:45.164Z,70.34
2023-01-10T21:22:05.552Z,70.32
2023-01-10T21:25:28.819Z,69.51
2023-01-10T21:28:50.264Z,69.11
2023-01-10T21:32:13.716Z,69.92
2023-01-10T21:35:34.053Z,70.28
2023-01-10T21:38:54.431Z,69.93
2023-01-10T21:42:33.421Z,70.43
2023-01-10T21:45:53.725Z,70.07
2023-01-10T21:49:15.021Z,71.25
2023-01-10T21:52:35.425Z,71.06
2023-01-10T21:55:56.091Z,71.18
2023-01-10T21:59:19.653Z,70.71
2023-01-10T22:02:40.120Z,70.18
2023-01-10T22:06:00.859Z,70.35
2023-01-10T22:09:21.397Z,70.95
2023-01-10T22:12:41.828Z,70.88
2023-01-10T22:16:07.058Z,69.96
2023-01-10T22:19:27.553Z,70.45
2023-01-10T22:22:48.291Z,70.03
2023-01-10T22:26:12.658Z,69.56
2023-01-10T22:29:33.277Z,70.29
2023-01-10T22:32:59.346Z,69.70
2023-01-10T22:36:22.486Z,69.34
2023-01-10T22:39:42.832Z,69.12
2023-01-10T22:43:03.446Z,70.53
2023-01-10T22:46:24.847Z,70.58
2023-01-10T22:49:48.054Z,69.97
2023-01-10T22:53:08.395Z,69.47
2023-01-10T22:56:29.392Z,69.70
2023-01-10T22:59:49.723Z,69.26
2023-01-10T23:03:10.290Z,70.28
2023-01-10T23:06:33.709Z,69.41
2023-01-10T23:09:54.054Z,69.43
2023-01-10T23:13:15.888Z,69.79
2023-01-10T23:16:36.653Z,69.26
2023-01-10T23:19:56.993Z,69.99
2023-01-10T23:23:20.331Z,69.76
2023-01-10T23:26:41.097Z,69.37
2023-01-10T23:30:01.777Z,68.48
2023-01-10T23:33:22.095Z,68.64
2023-01-10T23:36:42.443Z,68.41
2023-01-10T23:40:05.649Z,68.89
2023-01-10T23:43:27.114Z,67.78
2023-01-10T23:46:47.563Z,68.32
2023-01-10T23:50:09.182Z,68.43
2023-01-10T23:53:29.821Z,68.28
2023-01-10T23:56:54.452Z,67.56
